sensor_id;sensor_type;location;lat;lon;timestamp;temperature;humidity
27492;DHT22;14927;51.210;6.838;2022-09-27T00:00:42;15.80;68.40
27492;DHT22;14927;51.210;6.838;2022-09-27T00:03:27;15.80;68.20
27492;DHT22;14927;51.210;6.838;2022-09-27T00:06:22;15.80;68.00
27492;DHT22;14927;51.210;6.838;2022-09-27T00:09:10;15.80;67.90
27492;DHT22;14927;51.210;6.838;2022-09-27T00:11:55;15.80;67.90
27492;DHT22;14927;51.210;6.838;2022-09-27T00:14:39;15.70;67.80
27492;DHT22;14927;51.210;6.838;2022-09-27T00:17:24;15.70;67.80
27492;DHT22;14927;51.210;6.838;2022-09-27T00:20:09;15.70;67.70
27492;DHT22;14927;51.210;6.838;2022-09-27T00:22:54;15.70;67.80
27492;DHT22;14927;51.210;6.838;2022-09-27T00:25:39;15.70;68.00
27492;DHT22;14927;51.210;6.838;2022-09-27T00:28:24;15.60;67.80
27492;DHT22;14927;51.210;6.838;2022-09-27T00:31:27;15.70;67.90
27492;DHT22;14927;51.210;6.838;2022-09-27T00:34:23;15.60;67.90
27492;DHT22;14927;51.210;6.838;2022-09-27T00:37:09;15.60;67.90
27492;DHT22;14927;51.210;6.838;2022-09-27T00:39:54;15.60;67.80
27492;DHT22;14927;51.210;6.838;2022-09-27T00:42:39;15.60;67.90
27492;DHT22;14927;51.210;6.838;2022-09-27T00:45:24;15.60;68.00
27492;DHT22;14927;51.210;6.838;2022-09-27T00:48:12;15.60;68.10
27492;DHT22;14927;51.210;6.838;2022-09-27T00:51:02;15.50;68.20
27492;DHT22;14927;51.210;6.838;2022-09-27T00:53:50;15.50;68.20
27492;DHT22;14927;51.210;6.838;2022-09-27T00:56:38;15.60;68.30
27492;DHT22;14927;51.210;6.838;2022-09-27T00:59:32;15.50;68.10
27492;DHT22;14927;51.210;6.838;2022-09-27T01:02:17;15.50;68.40
27492;DHT22;14927;51.210;6.838;2022-09-27T01:05:03;15.50;68.10
27492;DHT22;14927;51.210;6.838;2022-09-27T01:07:49;15.50;68.10
27492;DHT22;14927;51.210;6.838;2022-09-27T01:10:39;15.50;68.10
27492;DHT22;14927;51.210;6.838;2022-09-27T01:13:46;15.40;68.10
27492;DHT22;14927;51.210;6.838;2022-09-27T01:20:19;15.50;68.30
27492;DHT22;14927;51.210;6.838;2022-09-27T01:33:25;15.40;68.10
27492;DHT22;14927;51.210;6.838;2022-09-27T01:36:42;15.40;68.00
27492;DHT22;14927;51.210;6.838;2022-09-27T01:39:31;15.40;68.00
27492;DHT22;14927;51.210;6.838;2022-09-27T01:42:27;15.40;67.60
27492;DHT22;14927;51.210;6.838;2022-09-27T01:45:37;15.40;68.20
27492;DHT22;14927;51.210;6.838;2022-09-27T01:48:35;15.30;68.30
27492;DHT22;14927;51.210;6.838;2022-09-27T01:52:00;15.30;68.30
27492;DHT22;14927;51.210;6.838;2022-09-27T01:54:53;15.30;68.70
27492;DHT22;14927;51.210;6.838;2022-09-27T01:57:44;15.30;68.40
27492;DHT22;14927;51.210;6.838;2022-09-27T02:00:34;15.10;68.30
27492;DHT22;14927;51.210;6.838;2022-09-27T02:03:30;15.30;68.30
27492;DHT22;14927;51.210;6.838;2022-09-27T02:06:26;15.20;68.60
27492;DHT22;14927;51.210;6.838;2022-09-27T02:09:27;15.20;68.50
27492;DHT22;14927;51.210;6.838;2022-09-27T02:12:39;15.20;68.70
27492;DHT22;14927;51.210;6.838;2022-09-27T02:22:32;15.20;68.80
27492;DHT22;14927;51.210;6.838;2022-09-27T02:25:12;15.20;68.50
27492;DHT22;14927;51.210;6.838;2022-09-27T02:28:06;15.20;68.60
27492;DHT22;14927;51.210;6.838;2022-09-27T02:31:12;15.20;68.50
27492;DHT22;14927;51.210;6.838;2022-09-27T02:34:15;15.20;68.50
27492;DHT22;14927;51.210;6.838;2022-09-27T02:37:04;15.20;68.60
27492;DHT22;14927;51.210;6.838;2022-09-27T02:39:49;15.20;68.40
27492;DHT22;14927;51.210;6.838;2022-09-27T02:42:34;15.20;68.50
27492;DHT22;14927;51.210;6.838;2022-09-27T02:45:19;15.20;68.50
27492;DHT22;14927;51.210;6.838;2022-09-27T02:48:17;15.20;68.50
27492;DHT22;14927;51.210;6.838;2022-09-27T02:58:22;15.20;68.50
27492;DHT22;14927;51.210;6.838;2022-09-27T03:01:28;15.20;68.40
27492;DHT22;14927;51.210;6.838;2022-09-27T03:07:17;15.20;68.00
27492;DHT22;14927;51.210;6.838;2022-09-27T03:10:03;15.20;67.80
27492;DHT22;14927;51.210;6.838;2022-09-27T03:12:49;15.10;67.90
27492;DHT22;14927;51.210;6.838;2022-09-27T03:15:33;15.10;67.80
27492;DHT22;14927;51.210;6.838;2022-09-27T03:18:18;15.10;67.90
27492;DHT22;14927;51.210;6.838;2022-09-27T03:21:03;15.10;68.00
27492;DHT22;14927;51.210;6.838;2022-09-27T03:23:48;15.00;67.90
27492;DHT22;14927;51.210;6.838;2022-09-27T03:26:33;15.10;68.00
27492;DHT22;14927;51.210;6.838;2022-09-27T03:29:18;15.00;67.90
27492;DHT22;14927;51.210;6.838;2022-09-27T03:32:03;15.00;67.80
27492;DHT22;14927;51.210;6.838;2022-09-27T03:34:47;15.00;67.80
27492;DHT22;14927;51.210;6.838;2022-09-27T03:37:32;15.00;67.90
27492;DHT22;14927;51.210;6.838;2022-09-27T03:40:17;15.00;67.90
27492;DHT22;14927;51.210;6.838;2022-09-27T03:43:02;15.00;67.80
27492;DHT22;14927;51.210;6.838;2022-09-27T03:45:46;14.90;67.50
27492;DHT22;14927;51.210;6.838;2022-09-27T03:48:31;14.90;67.50
27492;DHT22;14927;51.210;6.838;2022-09-27T03:51:17;14.90;67.50
27492;DHT22;14927;51.210;6.838;2022-09-27T03:54:01;14.90;67.50
27492;DHT22;14927;51.210;6.838;2022-09-27T03:56:46;14.90;67.60
27492;DHT22;14927;51.210;6.838;2022-09-27T03:59:32;14.90;67.60
27492;DHT22;14927;51.210;6.838;2022-09-27T04:02:17;14.80;67.70
27492;DHT22;14927;51.210;6.838;2022-09-27T04:05:01;14.80;67.90
27492;DHT22;14927;51.210;6.838;2022-09-27T04:07:47;14.80;68.00
27492;DHT22;14927;51.210;6.838;2022-09-27T04:10:32;14.80;68.00
27492;DHT22;14927;51.210;6.838;2022-09-27T04:13:17;14.80;67.90
27492;DHT22;14927;51.210;6.838;2022-09-27T04:16:02;14.80;67.90
27492;DHT22;14927;51.210;6.838;2022-09-27T04:18:47;14.80;67.90
27492;DHT22;14927;51.210;6.838;2022-09-27T04:21:33;14.80;67.90
27492;DHT22;14927;51.210;6.838;2022-09-27T04:24:18;14.70;67.80
27492;DHT22;14927;51.210;6.838;2022-09-27T04:27:03;14.80;67.90
27492;DHT22;14927;51.210;6.838;2022-09-27T04:29:47;14.70;67.80
27492;DHT22;14927;51.210;6.838;2022-09-27T04:32:32;14.70;67.70
27492;DHT22;14927;51.210;6.838;2022-09-27T04:35:17;14.70;67.70
27492;DHT22;14927;51.210;6.838;2022-09-27T04:38:20;14.70;67.60
27492;DHT22;14927;51.210;6.838;2022-09-27T04:41:07;14.70;67.60
27492;DHT22;14927;51.210;6.838;2022-09-27T04:43:52;14.70;67.50
27492;DHT22;14927;51.210;6.838;2022-09-27T04:46:37;14.70;67.40
27492;DHT22;14927;51.210;6.838;2022-09-27T04:49:22;14.60;67.40
27492;DHT22;14927;51.210;6.838;2022-09-27T04:52:07;14.60;67.40
27492;DHT22;14927;51.210;6.838;2022-09-27T04:54:51;14.60;67.40
27492;DHT22;14927;51.210;6.838;2022-09-27T04:57:36;14.60;67.40
27492;DHT22;14927;51.210;6.838;2022-09-27T05:00:21;14.60;67.40
27492;DHT22;14927;51.210;6.838;2022-09-27T05:03:08;14.60;67.40
27492;DHT22;14927;51.210;6.838;2022-09-27T05:05:53;14.60;67.40
27492;DHT22;14927;51.210;6.838;2022-09-27T05:08:38;14.50;67.40
27492;DHT22;14927;51.210;6.838;2022-09-27T05:11:24;14.60;67.50
27492;DHT22;14927;51.210;6.838;2022-09-27T05:14:09;14.60;67.40
27492;DHT22;14927;51.210;6.838;2022-09-27T05:16:53;14.50;67.50
27492;DHT22;14927;51.210;6.838;2022-09-27T05:19:38;14.50;67.40
27492;DHT22;14927;51.210;6.838;2022-09-27T05:22:23;14.50;67.20
27492;DHT22;14927;51.210;6.838;2022-09-27T05:25:08;14.50;67.20
27492;DHT22;14927;51.210;6.838;2022-09-27T05:27:52;14.50;67.10
27492;DHT22;14927;51.210;6.838;2022-09-27T05:30:37;14.50;67.10
27492;DHT22;14927;51.210;6.838;2022-09-27T05:33:22;14.50;67.10
27492;DHT22;14927;51.210;6.838;2022-09-27T05:36:08;14.50;67.10
27492;DHT22;14927;51.210;6.838;2022-09-27T05:38:53;14.50;67.00
27492;DHT22;14927;51.210;6.838;2022-09-27T05:41:37;14.50;67.00
27492;DHT22;14927;51.210;6.838;2022-09-27T05:44:24;14.50;67.00
27492;DHT22;14927;51.210;6.838;2022-09-27T05:47:09;14.50;67.00
27492;DHT22;14927;51.210;6.838;2022-09-27T05:49:53;14.50;67.50
27492;DHT22;14927;51.210;6.838;2022-09-27T05:52:38;14.40;66.60
27492;DHT22;14927;51.210;6.838;2022-09-27T05:55:23;14.40;66.60
27492;DHT22;14927;51.210;6.838;2022-09-27T05:58:09;14.40;66.60
27492;DHT22;14927;51.210;6.838;2022-09-27T06:00:54;14.40;66.40
27492;DHT22;14927;51.210;6.838;2022-09-27T06:03:39;14.40;66.50
27492;DHT22;14927;51.210;6.838;2022-09-27T06:06:24;14.40;66.60
27492;DHT22;14927;51.210;6.838;2022-09-27T06:09:10;14.40;66.70
27492;DHT22;14927;51.210;6.838;2022-09-27T06:11:56;14.50;66.60
27492;DHT22;14927;51.210;6.838;2022-09-27T06:14:40;14.70;66.60
27492;DHT22;14927;51.210;6.838;2022-09-27T06:17:25;14.40;66.40
27492;DHT22;14927;51.210;6.838;2022-09-27T06:20:09;14.40;66.60
27492;DHT22;14927;51.210;6.838;2022-09-27T06:22:54;14.40;66.60
27492;DHT22;14927;51.210;6.838;2022-09-27T06:25:39;14.40;66.50
27492;DHT22;14927;51.210;6.838;2022-09-27T06:28:24;14.50;66.40
27492;DHT22;14927;51.210;6.838;2022-09-27T06:31:10;14.40;66.30
27492;DHT22;14927;51.210;6.838;2022-09-27T06:33:55;14.50;66.40
27492;DHT22;14927;51.210;6.838;2022-09-27T06:36:40;14.50;66.50
27492;DHT22;14927;51.210;6.838;2022-09-27T06:39:24;14.50;66.50
27492;DHT22;14927;51.210;6.838;2022-09-27T06:42:09;14.50;66.40
27492;DHT22;14927;51.210;6.838;2022-09-27T06:44:54;14.50;66.40
27492;DHT22;14927;51.210;6.838;2022-09-27T06:47:39;14.50;66.40
27492;DHT22;14927;51.210;6.838;2022-09-27T06:50:23;14.60;66.40
27492;DHT22;14927;51.210;6.838;2022-09-27T06:53:14;14.50;66.40
27492;DHT22;14927;51.210;6.838;2022-09-27T06:56:17;14.60;66.20
27492;DHT22;14927;51.210;6.838;2022-09-27T06:59:01;14.60;66.20
27492;DHT22;14927;51.210;6.838;2022-09-27T07:02:05;14.60;66.00
27492;DHT22;14927;51.210;6.838;2022-09-27T07:04:49;14.60;65.90
27492;DHT22;14927;51.210;6.838;2022-09-27T07:07:35;14.60;65.60
27492;DHT22;14927;51.210;6.838;2022-09-27T07:10:24;14.60;65.70
27492;DHT22;14927;51.210;6.838;2022-09-27T07:13:10;14.60;65.70
27492;DHT22;14927;51.210;6.838;2022-09-27T07:15:56;14.60;65.60
27492;DHT22;14927;51.210;6.838;2022-09-27T07:18:42;14.60;65.50
27492;DHT22;14927;51.210;6.838;2022-09-27T07:21:26;14.40;65.50
27492;DHT22;14927;51.210;6.838;2022-09-27T07:24:11;14.60;65.80
27492;DHT22;14927;51.210;6.838;2022-09-27T07:26:56;14.60;66.00
27492;DHT22;14927;51.210;6.838;2022-09-27T07:29:40;14.60;66.30
27492;DHT22;14927;51.210;6.838;2022-09-27T07:32:25;14.60;66.00
27492;DHT22;14927;51.210;6.838;2022-09-27T07:35:10;14.60;65.80
27492;DHT22;14927;51.210;6.838;2022-09-27T07:37:58;14.60;65.80
27492;DHT22;14927;51.210;6.838;2022-09-27T07:40:47;14.60;66.00
27492;DHT22;14927;51.210;6.838;2022-09-27T07:43:31;14.60;66.10
27492;DHT22;14927;51.210;6.838;2022-09-27T07:46:16;14.60;66.10
27492;DHT22;14927;51.210;6.838;2022-09-27T07:49:00;14.60;66.00
27492;DHT22;14927;51.210;6.838;2022-09-27T07:51:45;14.60;66.20
27492;DHT22;14927;51.210;6.838;2022-09-27T07:54:30;14.60;66.30
27492;DHT22;14927;51.210;6.838;2022-09-27T07:57:15;14.60;66.30
27492;DHT22;14927;51.210;6.838;2022-09-27T08:00:00;14.60;66.40
27492;DHT22;14927;51.210;6.838;2022-09-27T08:02:45;14.60;66.40
27492;DHT22;14927;51.210;6.838;2022-09-27T08:05:30;14.60;66.50
27492;DHT22;14927;51.210;6.838;2022-09-27T08:08:15;14.70;66.70
27492;DHT22;14927;51.210;6.838;2022-09-27T08:11:00;14.70;66.80
27492;DHT22;14927;51.210;6.838;2022-09-27T08:13:45;14.70;66.80
27492;DHT22;14927;51.210;6.838;2022-09-27T08:16:34;14.70;66.70
27492;DHT22;14927;51.210;6.838;2022-09-27T08:19:18;14.70;66.50
27492;DHT22;14927;51.210;6.838;2022-09-27T08:22:03;14.80;66.40
27492;DHT22;14927;51.210;6.838;2022-09-27T08:24:48;14.80;66.50
27492;DHT22;14927;51.210;6.838;2022-09-27T08:27:33;14.90;66.50
27492;DHT22;14927;51.210;6.838;2022-09-27T08:30:18;14.80;66.40
27492;DHT22;14927;51.210;6.838;2022-09-27T08:33:02;14.90;66.30
27492;DHT22;14927;51.210;6.838;2022-09-27T08:35:47;14.90;66.10
27492;DHT22;14927;51.210;6.838;2022-09-27T08:38:32;14.90;65.90
27492;DHT22;14927;51.210;6.838;2022-09-27T08:41:48;14.90;65.60
27492;DHT22;14927;51.210;6.838;2022-09-27T08:47:55;14.90;65.20
27492;DHT22;14927;51.210;6.838;2022-09-27T08:50:43;15.00;65.30
27492;DHT22;14927;51.210;6.838;2022-09-27T08:53:41;15.00;65.30
27492;DHT22;14927;51.210;6.838;2022-09-27T08:56:30;15.10;65.20
27492;DHT22;14927;51.210;6.838;2022-09-27T08:59:21;15.10;65.10
27492;DHT22;14927;51.210;6.838;2022-09-27T09:02:26;15.10;64.80
27492;DHT22;14927;51.210;6.838;2022-09-27T09:05:16;15.10;64.90
27492;DHT22;14927;51.210;6.838;2022-09-27T09:08:22;15.10;65.00
27492;DHT22;14927;51.210;6.838;2022-09-27T09:18:21;15.10;65.60
27492;DHT22;14927;51.210;6.838;2022-09-27T09:21:40;15.10;65.80
27492;DHT22;14927;51.210;6.838;2022-09-27T09:31:14;15.30;66.40
27492;DHT22;14927;51.210;6.838;2022-09-27T09:34:40;15.30;66.20
27492;DHT22;14927;51.210;6.838;2022-09-27T09:40:37;15.40;66.00
27492;DHT22;14927;51.210;6.838;2022-09-27T09:43:29;15.40;66.00
27492;DHT22;14927;51.210;6.838;2022-09-27T09:46:42;15.50;66.10
27492;DHT22;14927;51.210;6.838;2022-09-27T09:49:36;15.50;66.70
27492;DHT22;14927;51.210;6.838;2022-09-27T09:52:28;15.50;65.90
27492;DHT22;14927;51.210;6.838;2022-09-27T09:55:25;15.60;65.90
27492;DHT22;14927;51.210;6.838;2022-09-27T09:58:30;15.60;65.60
27492;DHT22;14927;51.210;6.838;2022-09-27T10:01:33;15.70;65.80
27492;DHT22;14927;51.210;6.838;2022-09-27T10:04:22;15.70;66.00
27492;DHT22;14927;51.210;6.838;2022-09-27T10:07:11;15.90;66.20
27492;DHT22;14927;51.210;6.838;2022-09-27T10:09:59;15.90;65.80
27492;DHT22;14927;51.210;6.838;2022-09-27T10:12:45;16.00;64.90
27492;DHT22;14927;51.210;6.838;2022-09-27T10:15:30;16.10;65.00
27492;DHT22;14927;51.210;6.838;2022-09-27T10:18:18;16.10;64.70
27492;DHT22;14927;51.210;6.838;2022-09-27T10:21:07;16.10;64.10
27492;DHT22;14927;51.210;6.838;2022-09-27T10:26:59;16.30;63.00
27492;DHT22;14927;51.210;6.838;2022-09-27T10:29:44;16.30;63.00
27492;DHT22;14927;51.210;6.838;2022-09-27T10:32:34;16.30;62.80
27492;DHT22;14927;51.210;6.838;2022-09-27T10:38:33;16.40;62.80
27492;DHT22;14927;51.210;6.838;2022-09-27T10:41:32;16.40;62.50
27492;DHT22;14927;51.210;6.838;2022-09-27T10:44:28;16.40;61.80
27492;DHT22;14927;51.210;6.838;2022-09-27T10:47:21;16.40;61.60
27492;DHT22;14927;51.210;6.838;2022-09-27T10:50:16;16.40;61.60
27492;DHT22;14927;51.210;6.838;2022-09-27T10:53:12;16.40;61.90
27492;DHT22;14927;51.210;6.838;2022-09-27T10:55:59;16.40;62.20
27492;DHT22;14927;51.210;6.838;2022-09-27T10:58:44;16.40;62.40
27492;DHT22;14927;51.210;6.838;2022-09-27T11:01:58;16.40;62.50
27492;DHT22;14927;51.210;6.838;2022-09-27T11:05:30;16.40;63.10
27492;DHT22;14927;51.210;6.838;2022-09-27T11:08:43;16.40;62.70
27492;DHT22;14927;51.210;6.838;2022-09-27T11:11:31;16.50;62.40
27492;DHT22;14927;51.210;6.838;2022-09-27T11:14:21;16.40;62.70
27492;DHT22;14927;51.210;6.838;2022-09-27T11:20:18;16.40;63.30
27492;DHT22;14927;51.210;6.838;2022-09-27T11:23:50;16.50;63.60
27492;DHT22;14927;51.210;6.838;2022-09-27T11:54:35;16.90;60.60
27492;DHT22;14927;51.210;6.838;2022-09-27T11:57:55;17.00;59.90
27492;DHT22;14927;51.210;6.838;2022-09-27T12:04:43;17.00;59.70
27492;DHT22;14927;51.210;6.838;2022-09-27T12:11:36;17.10;59.10
27492;DHT22;14927;51.210;6.838;2022-09-27T12:14:37;17.20;60.00
27492;DHT22;14927;51.210;6.838;2022-09-27T12:17:37;17.20;59.70
27492;DHT22;14927;51.210;6.838;2022-09-27T12:20:30;17.30;59.20
27492;DHT22;14927;51.210;6.838;2022-09-27T12:23:45;17.30;59.30
27492;DHT22;14927;51.210;6.838;2022-09-27T12:26:39;17.30;59.10
27492;DHT22;14927;51.210;6.838;2022-09-27T12:29:27;17.30;58.80
27492;DHT22;14927;51.210;6.838;2022-09-27T12:38:13;17.30;58.60
27492;DHT22;14927;51.210;6.838;2022-09-27T12:41:04;17.30;58.60
27492;DHT22;14927;51.210;6.838;2022-09-27T12:43:51;17.30;58.90
27492;DHT22;14927;51.210;6.838;2022-09-27T12:50:32;17.30;58.30
27492;DHT22;14927;51.210;6.838;2022-09-27T12:53:25;17.30;58.50
27492;DHT22;14927;51.210;6.838;2022-09-27T12:59:38;17.20;58.80
27492;DHT22;14927;51.210;6.838;2022-09-27T13:06:03;17.10;57.90
27492;DHT22;14927;51.210;6.838;2022-09-27T13:12:51;16.90;57.60
27492;DHT22;14927;51.210;6.838;2022-09-27T13:15:38;16.80;58.20
27492;DHT22;14927;51.210;6.838;2022-09-27T13:39:18;16.50;59.10
27492;DHT22;14927;51.210;6.838;2022-09-27T13:42:12;16.50;59.20
27492;DHT22;14927;51.210;6.838;2022-09-27T13:48:21;16.60;58.80
27492;DHT22;14927;51.210;6.838;2022-09-27T14:00:47;16.80;58.00
27492;DHT22;14927;51.210;6.838;2022-09-27T14:07:02;16.90;57.00
27492;DHT22;14927;51.210;6.838;2022-09-27T14:09:54;17.00;57.30
27492;DHT22;14927;51.210;6.838;2022-09-27T14:12:45;17.00;56.90
27492;DHT22;14927;51.210;6.838;2022-09-27T14:15:30;17.10;57.20
27492;DHT22;14927;51.210;6.838;2022-09-27T14:18:16;17.20;57.50
27492;DHT22;14927;51.210;6.838;2022-09-27T14:27:24;17.70;57.00
27492;DHT22;14927;51.210;6.838;2022-09-27T14:30:23;17.90;56.50
27492;DHT22;14927;51.210;6.838;2022-09-27T14:33:26;18.00;56.00
27492;DHT22;14927;51.210;6.838;2022-09-27T14:36:29;18.10;55.60
27492;DHT22;14927;51.210;6.838;2022-09-27T14:39:34;18.20;54.90
27492;DHT22;14927;51.210;6.838;2022-09-27T14:42:23;18.20;55.00
27492;DHT22;14927;51.210;6.838;2022-09-27T14:45:21;18.20;54.20
27492;DHT22;14927;51.210;6.838;2022-09-27T14:48:27;18.20;54.60
27492;DHT22;14927;51.210;6.838;2022-09-27T14:51:19;18.10;53.60
27492;DHT22;14927;51.210;6.838;2022-09-27T14:54:05;18.10;54.10
27492;DHT22;14927;51.210;6.838;2022-09-27T14:56:54;18.10;54.50
27492;DHT22;14927;51.210;6.838;2022-09-27T14:59:40;18.10;54.20
27492;DHT22;14927;51.210;6.838;2022-09-27T15:02:29;18.00;54.20
27492;DHT22;14927;51.210;6.838;2022-09-27T15:05:18;18.00;54.20
27492;DHT22;14927;51.210;6.838;2022-09-27T15:08:05;18.00;54.70
27492;DHT22;14927;51.210;6.838;2022-09-27T15:10:50;17.90;54.20
27492;DHT22;14927;51.210;6.838;2022-09-27T15:13:35;17.80;54.20
27492;DHT22;14927;51.210;6.838;2022-09-27T15:16:22;17.80;54.10
27492;DHT22;14927;51.210;6.838;2022-09-27T15:19:27;17.80;54.10
27492;DHT22;14927;51.210;6.838;2022-09-27T15:22:31;17.70;53.80
27492;DHT22;14927;51.210;6.838;2022-09-27T15:25:24;17.70;53.80
27492;DHT22;14927;51.210;6.838;2022-09-27T15:28:20;17.60;54.10
27492;DHT22;14927;51.210;6.838;2022-09-27T15:31:05;17.60;54.30
27492;DHT22;14927;51.210;6.838;2022-09-27T15:33:53;17.50;54.30
27492;DHT22;14927;51.210;6.838;2022-09-27T15:36:52;17.50;54.30
27492;DHT22;14927;51.210;6.838;2022-09-27T15:39:39;17.40;54.10
27492;DHT22;14927;51.210;6.838;2022-09-27T15:42:24;17.40;54.40
27492;DHT22;14927;51.210;6.838;2022-09-27T15:48:14;17.30;54.30
27492;DHT22;14927;51.210;6.838;2022-09-27T15:51:00;17.20;54.60
27492;DHT22;14927;51.210;6.838;2022-09-27T15:53:45;17.20;54.60
27492;DHT22;14927;51.210;6.838;2022-09-27T15:56:32;17.20;54.90
27492;DHT22;14927;51.210;6.838;2022-09-27T15:59:28;17.10;55.00
27492;DHT22;14927;51.210;6.838;2022-09-27T16:02:16;17.10;55.20
27492;DHT22;14927;51.210;6.838;2022-09-27T16:05:02;17.10;55.70
27492;DHT22;14927;51.210;6.838;2022-09-27T16:07:47;17.00;56.00
27492;DHT22;14927;51.210;6.838;2022-09-27T16:10:37;17.00;56.30
27492;DHT22;14927;51.210;6.838;2022-09-27T16:13:23;16.90;56.50
27492;DHT22;14927;51.210;6.838;2022-09-27T16:16:14;16.90;56.80
27492;DHT22;14927;51.210;6.838;2022-09-27T16:19:00;16.90;57.30
27492;DHT22;14927;51.210;6.838;2022-09-27T16:21:45;16.80;57.40
27492;DHT22;14927;51.210;6.838;2022-09-27T16:24:31;16.80;57.60
27492;DHT22;14927;51.210;6.838;2022-09-27T16:27:23;16.70;57.60
27492;DHT22;14927;51.210;6.838;2022-09-27T16:30:10;16.70;57.30
27492;DHT22;14927;51.210;6.838;2022-09-27T16:32:56;16.60;57.30
27492;DHT22;14927;51.210;6.838;2022-09-27T16:35:42;16.60;57.40
27492;DHT22;14927;51.210;6.838;2022-09-27T16:38:28;16.60;57.20
27492;DHT22;14927;51.210;6.838;2022-09-27T16:41:13;16.60;57.00
27492;DHT22;14927;51.210;6.838;2022-09-27T16:43:58;16.50;57.20
27492;DHT22;14927;51.210;6.838;2022-09-27T16:46:43;16.50;57.40
27492;DHT22;14927;51.210;6.838;2022-09-27T16:49:31;16.50;57.50
27492;DHT22;14927;51.210;6.838;2022-09-27T16:52:36;16.40;57.40
27492;DHT22;14927;51.210;6.838;2022-09-27T16:55:20;16.40;57.40
27492;DHT22;14927;51.210;6.838;2022-09-27T16:58:06;16.40;57.30
27492;DHT22;14927;51.210;6.838;2022-09-27T17:00:55;16.40;57.40
27492;DHT22;14927;51.210;6.838;2022-09-27T17:03:42;16.30;57.20
27492;DHT22;14927;51.210;6.838;2022-09-27T17:06:28;16.30;57.80
27492;DHT22;14927;51.210;6.838;2022-09-27T17:09:14;16.30;57.10
27492;DHT22;14927;51.210;6.838;2022-09-27T17:11:59;16.20;56.90
27492;DHT22;14927;51.210;6.838;2022-09-27T17:14:44;16.20;56.90
27492;DHT22;14927;51.210;6.838;2022-09-27T17:17:28;16.20;56.90
27492;DHT22;14927;51.210;6.838;2022-09-27T17:20:13;16.20;56.90
27492;DHT22;14927;51.210;6.838;2022-09-27T17:22:57;16.10;56.90
27492;DHT22;14927;51.210;6.838;2022-09-27T17:25:42;16.20;57.00
27492;DHT22;14927;51.210;6.838;2022-09-27T17:28:28;16.10;57.20
27492;DHT22;14927;51.210;6.838;2022-09-27T17:31:15;16.10;57.30
27492;DHT22;14927;51.210;6.838;2022-09-27T17:34:02;16.00;57.30
27492;DHT22;14927;51.210;6.838;2022-09-27T17:36:47;16.00;57.50
27492;DHT22;14927;51.210;6.838;2022-09-27T17:39:33;16.00;57.70
27492;DHT22;14927;51.210;6.838;2022-09-27T17:42:18;16.00;57.80
27492;DHT22;14927;51.210;6.838;2022-09-27T17:45:03;16.00;57.70
27492;DHT22;14927;51.210;6.838;2022-09-27T17:47:47;15.90;57.70
27492;DHT22;14927;51.210;6.838;2022-09-27T17:50:50;15.90;57.70
27492;DHT22;14927;51.210;6.838;2022-09-27T17:53:35;15.90;57.70
27492;DHT22;14927;51.210;6.838;2022-09-27T17:56:20;15.90;57.70
27492;DHT22;14927;51.210;6.838;2022-09-27T17:59:07;15.90;57.70
27492;DHT22;14927;51.210;6.838;2022-09-27T18:01:53;15.90;57.80
27492;DHT22;14927;51.210;6.838;2022-09-27T18:04:37;15.90;58.50
27492;DHT22;14927;51.210;6.838;2022-09-27T18:07:22;15.90;58.00
27492;DHT22;14927;51.210;6.838;2022-09-27T18:10:07;15.80;57.90
27492;DHT22;14927;51.210;6.838;2022-09-27T18:12:51;15.80;57.90
27492;DHT22;14927;51.210;6.838;2022-09-27T18:15:36;15.80;57.90
27492;DHT22;14927;51.210;6.838;2022-09-27T18:18:21;15.80;58.10
27492;DHT22;14927;51.210;6.838;2022-09-27T18:21:12;15.80;58.20
27492;DHT22;14927;51.210;6.838;2022-09-27T18:24:05;15.80;58.30
27492;DHT22;14927;51.210;6.838;2022-09-27T18:26:50;15.80;58.20
27492;DHT22;14927;51.210;6.838;2022-09-27T18:29:34;15.80;58.30
27492;DHT22;14927;51.210;6.838;2022-09-27T18:32:19;15.80;58.30
27492;DHT22;14927;51.210;6.838;2022-09-27T18:35:04;15.70;58.30
27492;DHT22;14927;51.210;6.838;2022-09-27T18:37:50;15.70;58.50
27492;DHT22;14927;51.210;6.838;2022-09-27T18:40:34;15.70;58.50
27492;DHT22;14927;51.210;6.838;2022-09-27T18:43:19;15.70;58.60
27492;DHT22;14927;51.210;6.838;2022-09-27T18:46:06;15.70;58.70
27492;DHT22;14927;51.210;6.838;2022-09-27T18:48:52;15.70;58.90
27492;DHT22;14927;51.210;6.838;2022-09-27T18:51:38;15.70;59.00
27492;DHT22;14927;51.210;6.838;2022-09-27T18:54:27;15.70;59.20
27492;DHT22;14927;51.210;6.838;2022-09-27T18:57:11;15.60;59.10
27492;DHT22;14927;51.210;6.838;2022-09-27T18:59:56;15.60;59.10
27492;DHT22;14927;51.210;6.838;2022-09-27T19:02:41;15.60;59.20
27492;DHT22;14927;51.210;6.838;2022-09-27T19:05:25;15.60;59.30
27492;DHT22;14927;51.210;6.838;2022-09-27T19:08:10;15.60;59.40
27492;DHT22;14927;51.210;6.838;2022-09-27T19:11:02;15.70;59.50
27492;DHT22;14927;51.210;6.838;2022-09-27T19:13:53;15.50;59.40
27492;DHT22;14927;51.210;6.838;2022-09-27T19:16:39;15.50;59.30
27492;DHT22;14927;51.210;6.838;2022-09-27T19:19:23;15.50;59.30
27492;DHT22;14927;51.210;6.838;2022-09-27T19:22:09;15.40;59.30
27492;DHT22;14927;51.210;6.838;2022-09-27T19:24:53;15.60;59.60
27492;DHT22;14927;51.210;6.838;2022-09-27T19:27:38;15.40;59.60
27492;DHT22;14927;51.210;6.838;2022-09-27T19:30:23;15.40;59.70
27492;DHT22;14927;51.210;6.838;2022-09-27T19:33:07;15.40;59.80
27492;DHT22;14927;51.210;6.838;2022-09-27T19:35:52;15.40;60.00
27492;DHT22;14927;51.210;6.838;2022-09-27T19:38:37;15.40;60.00
27492;DHT22;14927;51.210;6.838;2022-09-27T19:41:22;15.40;60.10
27492;DHT22;14927;51.210;6.838;2022-09-27T19:44:08;15.40;61.10
27492;DHT22;14927;51.210;6.838;2022-09-27T19:46:53;15.40;60.60
27492;DHT22;14927;51.210;6.838;2022-09-27T19:49:38;15.40;60.80
27492;DHT22;14927;51.210;6.838;2022-09-27T19:52:22;15.30;60.90
27492;DHT22;14927;51.210;6.838;2022-09-27T19:55:08;15.40;61.00
27492;DHT22;14927;51.210;6.838;2022-09-27T19:57:55;15.40;61.10
27492;DHT22;14927;51.210;6.838;2022-09-27T20:00:40;15.40;61.30
27492;DHT22;14927;51.210;6.838;2022-09-27T20:03:24;15.40;61.40
27492;DHT22;14927;51.210;6.838;2022-09-27T20:06:15;15.40;61.60
27492;DHT22;14927;51.210;6.838;2022-09-27T20:09:02;15.40;61.80
27492;DHT22;14927;51.210;6.838;2022-09-27T20:11:46;15.40;62.00
27492;DHT22;14927;51.210;6.838;2022-09-27T20:14:31;15.40;62.20
27492;DHT22;14927;51.210;6.838;2022-09-27T20:17:16;15.50;62.50
27492;DHT22;14927;51.210;6.838;2022-09-27T20:20:00;15.30;62.60
27492;DHT22;14927;51.210;6.838;2022-09-27T20:22:47;15.40;62.90
27492;DHT22;14927;51.210;6.838;2022-09-27T20:25:31;15.30;63.00
27492;DHT22;14927;51.210;6.838;2022-09-27T20:28:17;15.30;63.10
27492;DHT22;14927;51.210;6.838;2022-09-27T20:31:03;15.30;63.30